Kezdőlap
METAR-TAF:

METAR-TAF

Repülőterek :

Moszkva, Oroszország

földrajzi szélesség: 55-30-42N, földrajzi hosszúság: 037-30-26E, magasság: 173 m

Jelenlegi meteorológiai megfigyelések

A jelentés 1 órával és 19 perccel ezelõtt készült, 12:30 UTC
Szélcsend
Hőmérséklet 2°C
Páratartalom 35%
Légköri nyomás 1044 hPa
Látótávolság 10 km, vagy több
felhőtlen 1500 m magasságban, és nincs gomolyfelhõ

METAR: UUMO 161230Z 00000MPS CAVOK 02/M12 Q1044 R26/190055 NOSIG RMK QFE767/1023

Idő: 16:49 (13:49 UTC)

Előrejelzés

A jelentés 3 órával és 4 perccel ezelõtt készült, 10:45 UTC
Az előrejelzés 16-én 12 óra UTC és 16-én 21 óra UTC között érvényes
Különbözõ irányokból fújó szél 2 kt
Látótávolság 10 km, vagy több
felhőtlen 1500 m magasságban, és nincs gomolyfelhõ
16-én 15 óra UTC és 16-én 17 óra UTC között fokozatosan kialakuló
Délnyugati szél 6 kt

TAF: UUMO 161045Z 1612/1621 VRB01MPS CAVOK BECMG 1615/1617 22003MPS

Meteorológiai megfigyelések és előrejelzések több, mint 4000 repülőtéren (METAR és TAF jelentéseket).

A térképen piros és sárga pontok jelzik az elérhető meteorológiai állomásokat.

Mozgassa az egeret a pont fölött, hogy megjelenjen az állomás neve.

Azután kattintson az időjárási megfigyelések és előrejelzések megtekintéséhez.

A térkép megváltoztatása: kattintson a fekete keresztel jelölt zöld gombra ráközelítéshez, a vonallal jelölt zöld gombra távolításhoz, vagy a zöld nyilakra a szomszédos térképek eléréséhez.


METAR-TAF: